sensor_id;sensor_type;location;lat;lon;timestamp;pressure;altitude;pressure_sealevel;temperature;humidity
86104;BME280;76727;51.216;17.394;2024-03-08T00:00:14;100489.81;;;-1.11;97.53
86104;BME280;76727;51.216;17.394;2024-03-08T00:03:36;100491.75;;;-1.02;97.24
86104;BME280;76727;51.216;17.394;2024-03-08T00:06:38;100484.63;;;-1.11;98.06
86104;BME280;76727;51.216;17.394;2024-03-08T00:09:40;100489.75;;;-1.12;98.26
86104;BME280;76727;51.216;17.394;2024-03-08T00:12:44;100483.88;;;-1.07;98.54
86104;BME280;76727;51.216;17.394;2024-03-08T00:15:47;100481.88;;;-1.17;98.42
86104;BME280;76727;51.216;17.394;2024-03-08T00:18:49;100478.25;;;-1.24;99.08
86104;BME280;76727;51.216;17.394;2024-03-08T00:21:51;100482.44;;;-1.27;99.29
86104;BME280;76727;51.216;17.394;2024-03-08T00:24:53;100484.84;;;-1.35;99.58
86104;BME280;76727;51.216;17.394;2024-03-08T00:27:56;100478.91;;;-1.32;99.55
86104;BME280;76727;51.216;17.394;2024-03-08T00:30:58;100482.91;;;-1.42;100.00
86104;BME280;76727;51.216;17.394;2024-03-08T00:34:01;100483.66;;;-1.46;100.00
86104;BME280;76727;51.216;17.394;2024-03-08T00:37:03;100486.88;;;-1.55;100.00
86104;BME280;76727;51.216;17.394;2024-03-08T00:40:06;100487.72;;;-1.56;100.00
86104;BME280;76727;51.216;17.394;2024-03-08T00:43:10;100485.91;;;-1.59;100.00
86104;BME280;76727;51.216;17.394;2024-03-08T00:46:13;100484.97;;;-1.62;100.00
86104;BME280;76727;51.216;17.394;2024-03-08T00:49:16;100485.78;;;-1.63;100.00
86104;BME280;76727;51.216;17.394;2024-03-08T00:52:18;100483.19;;;-1.65;100.00
86104;BME280;76727;51.216;17.394;2024-03-08T00:55:20;100473.59;;;-1.69;100.00
86104;BME280;76727;51.216;17.394;2024-03-08T00:58:23;100459.72;;;-1.71;100.00
86104;BME280;76727;51.216;17.394;2024-03-08T01:01:25;100464.84;;;-1.73;100.00
86104;BME280;76727;51.216;17.394;2024-03-08T01:04:28;100459.63;;;-1.76;100.00
86104;BME280;76727;51.216;17.394;2024-03-08T01:07:30;100465.56;;;-1.78;100.00
86104;BME280;76727;51.216;17.394;2024-03-08T01:10:32;100451.09;;;-1.73;100.00
86104;BME280;76727;51.216;17.394;2024-03-08T01:13:35;100451.59;;;-1.85;100.00
86104;BME280;76727;51.216;17.394;2024-03-08T01:16:37;100448.09;;;-1.87;100.00
86104;BME280;76727;51.216;17.394;2024-03-08T01:19:40;100449.00;;;-1.85;100.00
86104;BME280;76727;51.216;17.394;2024-03-08T01:22:42;100445.59;;;-1.84;100.00
86104;BME280;76727;51.216;17.394;2024-03-08T01:25:44;100448.88;;;-1.90;100.00
86104;BME280;76727;51.216;17.394;2024-03-08T01:28:49;100446.75;;;-2.03;100.00
86104;BME280;76727;51.216;17.394;2024-03-08T01:31:54;100445.94;;;-2.02;100.00
86104;BME280;76727;51.216;17.394;2024-03-08T01:34:55;100440.66;;;-2.07;100.00
86104;BME280;76727;51.216;17.394;2024-03-08T01:37:57;100442.41;;;-2.06;100.00
86104;BME280;76727;51.216;17.394;2024-03-08T01:40:58;100438.72;;;-1.83;100.00
86104;BME280;76727;51.216;17.394;2024-03-08T01:44:01;100432.78;;;-1.81;100.00
86104;BME280;76727;51.216;17.394;2024-03-08T01:47:03;100434.94;;;-1.64;100.00
86104;BME280;76727;51.216;17.394;2024-03-08T01:50:06;100431.50;;;-1.65;100.00
86104;BME280;76727;51.216;17.394;2024-03-08T01:53:09;100434.56;;;-1.78;100.00
86104;BME280;76727;51.216;17.394;2024-03-08T01:56:12;100425.84;;;-1.82;100.00
86104;BME280;76727;51.216;17.394;2024-03-08T01:59:16;100428.38;;;-1.83;100.00
86104;BME280;76727;51.216;17.394;2024-03-08T02:02:19;100418.81;;;-1.88;100.00
86104;BME280;76727;51.216;17.394;2024-03-08T02:05:22;100419.06;;;-1.78;100.00
86104;BME280;76727;51.216;17.394;2024-03-08T02:08:25;100422.22;;;-1.89;100.00
86104;BME280;76727;51.216;17.394;2024-03-08T02:11:26;100415.41;;;-1.87;100.00
86104;BME280;76727;51.216;17.394;2024-03-08T02:14:30;100414.50;;;-1.87;100.00
86104;BME280;76727;51.216;17.394;2024-03-08T02:17:32;100400.53;;;-1.94;100.00
86104;BME280;76727;51.216;17.394;2024-03-08T02:20:35;100409.75;;;-2.04;100.00
86104;BME280;76727;51.216;17.394;2024-03-08T02:23:37;100410.78;;;-1.97;100.00
86104;BME280;76727;51.216;17.394;2024-03-08T02:26:39;100408.88;;;-2.04;100.00
86104;BME280;76727;51.216;17.394;2024-03-08T02:29:42;100401.03;;;-2.07;100.00
86104;BME280;76727;51.216;17.394;2024-03-08T02:32:45;100413.84;;;-2.10;100.00
86104;BME280;76727;51.216;17.394;2024-03-08T02:35:49;100405.75;;;-2.23;100.00
86104;BME280;76727;51.216;17.394;2024-03-08T02:38:50;100408.69;;;-2.10;100.00
86104;BME280;76727;51.216;17.394;2024-03-08T02:41:52;100402.16;;;-2.28;100.00
86104;BME280;76727;51.216;17.394;2024-03-08T02:44:55;100413.22;;;-2.32;100.00
86104;BME280;76727;51.216;17.394;2024-03-08T02:47:56;100403.50;;;-2.41;100.00
86104;BME280;76727;51.216;17.394;2024-03-08T02:51:01;100411.09;;;-2.45;100.00
86104;BME280;76727;51.216;17.394;2024-03-08T02:54:02;100404.00;;;-2.52;100.00
86104;BME280;76727;51.216;17.394;2024-03-08T02:57:04;100398.13;;;-2.48;100.00
86104;BME280;76727;51.216;17.394;2024-03-08T03:00:07;100400.59;;;-2.51;100.00
86104;BME280;76727;51.216;17.394;2024-03-08T03:03:09;100398.56;;;-2.62;100.00
86104;BME280;76727;51.216;17.394;2024-03-08T03:06:12;100398.84;;;-2.52;100.00
86104;BME280;76727;51.216;17.394;2024-03-08T03:09:13;100398.56;;;-2.62;100.00
86104;BME280;76727;51.216;17.394;2024-03-08T03:12:15;100398.47;;;-2.65;100.00
86104;BME280;76727;51.216;17.394;2024-03-08T03:15:17;100405.16;;;-2.72;100.00
86104;BME280;76727;51.216;17.394;2024-03-08T03:18:20;100411.13;;;-2.73;100.00
86104;BME280;76727;51.216;17.394;2024-03-08T03:21:23;100404.91;;;-2.79;100.00
86104;BME280;76727;51.216;17.394;2024-03-08T03:24:25;100406.84;;;-2.72;100.00
86104;BME280;76727;51.216;17.394;2024-03-08T03:27:27;100393.06;;;-2.73;100.00
86104;BME280;76727;51.216;17.394;2024-03-08T03:30:30;100393.31;;;-2.65;100.00
86104;BME280;76727;51.216;17.394;2024-03-08T03:33:32;100393.44;;;-2.60;100.00
86104;BME280;76727;51.216;17.394;2024-03-08T03:36:35;100392.06;;;-2.78;100.00
86104;BME280;76727;51.216;17.394;2024-03-08T03:39:37;100397.31;;;-2.75;100.00
86104;BME280;76727;51.216;17.394;2024-03-08T03:42:39;100391.34;;;-2.72;100.00
86104;BME280;76727;51.216;17.394;2024-03-08T03:45:43;100398.19;;;-2.74;100.00
86104;BME280;76727;51.216;17.394;2024-03-08T03:48:44;100397.97;;;-2.80;100.00
86104;BME280;76727;51.216;17.394;2024-03-08T03:51:48;100395.59;;;-2.74;100.00
86104;BME280;76727;51.216;17.394;2024-03-08T03:54:50;100393.06;;;-2.73;100.00
86104;BME280;76727;51.216;17.394;2024-03-08T03:57:51;100396.44;;;-2.75;100.00
86104;BME280;76727;51.216;17.394;2024-03-08T04:00:53;100405.00;;;-2.76;100.00
86104;BME280;76727;51.216;17.394;2024-03-08T04:03:55;100395.66;;;-2.73;100.00
86104;BME280;76727;51.216;17.394;2024-03-08T04:06:58;100397.94;;;-2.82;100.00
86104;BME280;76727;51.216;17.394;2024-03-08T04:10:01;100392.22;;;-2.73;100.00
86104;BME280;76727;51.216;17.394;2024-03-08T04:13:03;100391.19;;;-2.78;100.00
86104;BME280;76727;51.216;17.394;2024-03-08T04:16:05;100391.91;;;-2.82;100.00
86104;BME280;76727;51.216;17.394;2024-03-08T04:19:08;100392.34;;;-2.96;100.00
86104;BME280;76727;51.216;17.394;2024-03-08T04:22:11;100393.56;;;-2.84;100.00
86104;BME280;76727;51.216;17.394;2024-03-08T04:25:15;100395.06;;;-2.91;100.00
86104;BME280;76727;51.216;17.394;2024-03-08T04:28:17;100395.66;;;-3.00;100.00
86104;BME280;76727;51.216;17.394;2024-03-08T04:31:18;100393.47;;;-2.88;100.00
86104;BME280;76727;51.216;17.394;2024-03-08T04:34:20;100390.47;;;-3.01;100.00
86104;BME280;76727;51.216;17.394;2024-03-08T04:37:24;100389.34;;;-3.10;100.00
86104;BME280;76727;51.216;17.394;2024-03-08T04:40:26;100388.50;;;-3.09;100.00
86104;BME280;76727;51.216;17.394;2024-03-08T04:43:28;100383.25;;;-3.12;100.00
86104;BME280;76727;51.216;17.394;2024-03-08T04:46:30;100384.38;;;-3.03;100.00
86104;BME280;76727;51.216;17.394;2024-03-08T04:49:32;100380.28;;;-2.97;100.00
86104;BME280;76727;51.216;17.394;2024-03-08T04:52:36;100379.47;;;-2.96;100.00
86104;BME280;76727;51.216;17.394;2024-03-08T04:55:38;100379.16;;;-3.05;100.00
86104;BME280;76727;51.216;17.394;2024-03-08T04:58:40;100387.72;;;-3.06;100.00
86104;BME280;76727;51.216;17.394;2024-03-08T05:01:42;100385.91;;;-3.09;100.00
86104;BME280;76727;51.216;17.394;2024-03-08T05:04:44;100389.22;;;-3.13;100.00
86104;BME280;76727;51.216;17.394;2024-03-08T05:07:47;100383.34;;;-3.09;100.00
86104;BME280;76727;51.216;17.394;2024-03-08T05:10:49;100385.91;;;-3.09;100.00
86104;BME280;76727;51.216;17.394;2024-03-08T05:13:52;100388.00;;;-2.97;100.00
86104;BME280;76727;51.216;17.394;2024-03-08T05:16:54;100387.19;;;-2.96;100.00
86104;BME280;76727;51.216;17.394;2024-03-08T05:19:56;100389.47;;;-3.05;100.00
86104;BME280;76727;51.216;17.394;2024-03-08T05:22:58;100394.78;;;-3.00;100.00
86104;BME280;76727;51.216;17.394;2024-03-08T05:26:00;100390.50;;;-3.00;100.00
86104;BME280;76727;51.216;17.394;2024-03-08T05:29:02;100394.94;;;-2.96;100.00
86104;BME280;76727;51.216;17.394;2024-03-08T05:32:04;100391.06;;;-3.09;100.00
86104;BME280;76727;51.216;17.394;2024-03-08T05:35:07;100390.41;;;-3.03;100.00
86104;BME280;76727;51.216;17.394;2024-03-08T05:38:11;100386.22;;;-2.99;100.00
86104;BME280;76727;51.216;17.394;2024-03-08T05:41:14;100388.84;;;-2.98;100.00
86104;BME280;76727;51.216;17.394;2024-03-08T05:44:16;100394.19;;;-2.92;100.00
86104;BME280;76727;51.216;17.394;2024-03-08T05:47:20;100387.34;;;-2.91;100.00
86104;BME280;76727;51.216;17.394;2024-03-08T05:50:23;100388.19;;;-2.92;100.00
86104;BME280;76727;51.216;17.394;2024-03-08T05:53:26;100391.75;;;-2.87;100.00
86104;BME280;76727;51.216;17.394;2024-03-08T05:56:29;100391.91;;;-2.82;100.00
86104;BME280;76727;51.216;17.394;2024-03-08T05:59:33;100388.69;;;-2.75;100.00
86104;BME280;76727;51.216;17.394;2024-03-08T06:02:35;100387.19;;;-2.68;100.00
86104;BME280;76727;51.216;17.394;2024-03-08T06:05:37;100389.91;;;-2.64;100.00
86104;BME280;76727;51.216;17.394;2024-03-08T06:08:41;100396.03;;;-2.60;100.00
86104;BME280;76727;51.216;17.394;2024-03-08T06:11:43;100395.34;;;-2.55;100.00
86104;BME280;76727;51.216;17.394;2024-03-08T06:14:45;100398.97;;;-2.48;100.00
86104;BME280;76727;51.216;17.394;2024-03-08T06:17:47;100408.69;;;-2.41;100.00
86104;BME280;76727;51.216;17.394;2024-03-08T06:20:50;100401.28;;;-2.28;100.00
86104;BME280;76727;51.216;17.394;2024-03-08T06:23:55;100401.59;;;-2.17;100.00
86104;BME280;76727;51.216;17.394;2024-03-08T06:26:57;100400.59;;;-2.23;100.00
86104;BME280;76727;51.216;17.394;2024-03-08T06:29:59;100409.03;;;-1.67;100.00
86104;BME280;76727;51.216;17.394;2024-03-08T06:33:01;100400.53;;;-1.63;100.00
86104;BME280;76727;51.216;17.394;2024-03-08T06:36:03;100407.50;;;-1.61;100.00
86104;BME280;76727;51.216;17.394;2024-03-08T06:39:07;100404.25;;;-1.52;100.00
86104;BME280;76727;51.216;17.394;2024-03-08T06:42:09;100403.56;;;-1.45;100.00
86104;BME280;76727;51.216;17.394;2024-03-08T06:45:12;100414.56;;;-1.20;100.00
86104;BME280;76727;51.216;17.394;2024-03-08T06:48:14;100399.97;;;-1.16;100.00
86104;BME280;76727;51.216;17.394;2024-03-08T06:51:16;100401.28;;;-0.99;100.00
86104;BME280;76727;51.216;17.394;2024-03-08T06:54:21;100405.81;;;-0.90;100.00
86104;BME280;76727;51.216;17.394;2024-03-08T06:57:23;100401.78;;;-0.77;100.00
86104;BME280;76727;51.216;17.394;2024-03-08T07:00:25;100395.91;;;-0.32;100.00
86104;BME280;76727;51.216;17.394;2024-03-08T07:03:27;100390.63;;;0.50;96.00
86104;BME280;76727;51.216;17.394;2024-03-08T07:06:31;100386.50;;;1.77;92.25
86104;BME280;76727;51.216;17.394;2024-03-08T07:09:33;100381.44;;;3.97;82.57
86104;BME280;76727;51.216;17.394;2024-03-08T07:12:34;100373.72;;;5.64;73.99
86104;BME280;76727;51.216;17.394;2024-03-08T07:15:36;100382.25;;;6.21;71.33
86104;BME280;76727;51.216;17.394;2024-03-08T07:18:38;100382.09;;;6.51;69.16
86104;BME280;76727;51.216;17.394;2024-03-08T07:21:40;100384.06;;;7.31;65.75
86104;BME280;76727;51.216;17.394;2024-03-08T07:24:43;100373.56;;;8.12;64.67
86104;BME280;76727;51.216;17.394;2024-03-08T07:27:47;100380.00;;;7.83;65.49
86104;BME280;76727;51.216;17.394;2024-03-08T07:30:49;100370.19;;;8.68;60.05
86104;BME280;76727;51.216;17.394;2024-03-08T07:33:52;100372.91;;;10.08;55.32
86104;BME280;76727;51.216;17.394;2024-03-08T07:36:54;100374.53;;;10.14;53.31
86104;BME280;76727;51.216;17.394;2024-03-08T07:39:59;100371.56;;;12.05;49.67
86104;BME280;76727;51.216;17.394;2024-03-08T07:43:00;100371.09;;;13.06;46.20
86104;BME280;76727;51.216;17.394;2024-03-08T07:46:03;100372.22;;;12.42;45.33
86104;BME280;76727;51.216;17.394;2024-03-08T07:49:05;100373.13;;;12.12;45.63
86104;BME280;76727;51.216;17.394;2024-03-08T07:52:08;100372.03;;;13.30;42.97
86104;BME280;76727;51.216;17.394;2024-03-08T07:55:11;100375.00;;;13.21;44.47
86104;BME280;76727;51.216;17.394;2024-03-08T07:58:13;100377.63;;;12.39;45.65
86104;BME280;76727;51.216;17.394;2024-03-08T08:01:17;100381.34;;;9.81;52.14
86104;BME280;76727;51.216;17.394;2024-03-08T08:04:19;100373.72;;;10.12;52.88
86104;BME280;76727;51.216;17.394;2024-03-08T08:07:21;100376.59;;;10.79;50.04
86104;BME280;76727;51.216;17.394;2024-03-08T08:10:25;100363.81;;;11.35;48.44
86104;BME280;76727;51.216;17.394;2024-03-08T08:13:28;100360.31;;;11.00;48.31
86104;BME280;76727;51.216;17.394;2024-03-08T08:16:30;100376.44;;;10.87;48.34
86104;BME280;76727;51.216;17.394;2024-03-08T08:19:32;100369.31;;;10.91;47.50
86104;BME280;76727;51.216;17.394;2024-03-08T08:22:35;100367.44;;;10.94;47.09
86104;BME280;76727;51.216;17.394;2024-03-08T08:25:38;100364.69;;;12.00;46.95
86104;BME280;76727;51.216;17.394;2024-03-08T08:28:40;100364.41;;;11.77;45.19
86104;BME280;76727;51.216;17.394;2024-03-08T08:31:41;100364.53;;;11.05;46.42
86104;BME280;76727;51.216;17.394;2024-03-08T08:34:44;100367.56;;;10.52;47.15
86104;BME280;76727;51.216;17.394;2024-03-08T08:37:46;100367.53;;;10.54;47.74
86104;BME280;76727;51.216;17.394;2024-03-08T08:40:49;100367.19;;;11.40;45.93
86104;BME280;76727;51.216;17.394;2024-03-08T08:43:50;100362.94;;;11.00;45.99
86104;BME280;76727;51.216;17.394;2024-03-08T08:46:52;100356.63;;;12.34;43.90
86104;BME280;76727;51.216;17.394;2024-03-08T08:49:55;100360.72;;;12.15;43.34
86104;BME280;76727;51.216;17.394;2024-03-08T08:52:57;100348.66;;;12.64;42.27
86104;BME280;76727;51.216;17.394;2024-03-08T08:56:01;100349.09;;;12.77;41.62
86104;BME280;76727;51.216;17.394;2024-03-08T08:59:02;100337.13;;;13.45;42.19
86104;BME280;76727;51.216;17.394;2024-03-08T09:02:05;100339.28;;;13.32;40.14
86104;BME280;76727;51.216;17.394;2024-03-08T09:05:07;100338.09;;;13.16;40.59
86104;BME280;76727;51.216;17.394;2024-03-08T09:08:08;100331.25;;;13.37;40.43
86104;BME280;76727;51.216;17.394;2024-03-08T09:11:12;100321.22;;;13.71;39.99
86104;BME280;76727;51.216;17.394;2024-03-08T09:14:14;100325.28;;;14.93;38.22
86104;BME280;76727;51.216;17.394;2024-03-08T09:17:16;100303.44;;;15.88;36.82
86104;BME280;76727;51.216;17.394;2024-03-08T09:20:19;100306.97;;;13.73;39.75
86104;BME280;76727;51.216;17.394;2024-03-08T09:23:20;100320.97;;;12.19;43.37
86104;BME280;76727;51.216;17.394;2024-03-08T09:26:24;100316.00;;;10.78;44.57
86104;BME280;76727;51.216;17.394;2024-03-08T09:29:26;100316.16;;;9.50;49.08
86104;BME280;76727;51.216;17.394;2024-03-08T09:32:28;100315.53;;;8.32;52.01
86104;BME280;76727;51.216;17.394;2024-03-08T09:35:29;100318.63;;;7.22;55.12
86104;BME280;76727;51.216;17.394;2024-03-08T09:38:31;100317.69;;;6.20;59.95
86104;BME280;76727;51.216;17.394;2024-03-08T09:41:35;100326.63;;;5.67;63.16
86104;BME280;76727;51.216;17.394;2024-03-08T09:44:37;100318.91;;;5.37;63.81
86104;BME280;76727;51.216;17.394;2024-03-08T09:47:39;100316.16;;;5.79;60.87
86104;BME280;76727;51.216;17.394;2024-03-08T09:50:42;100316.97;;;5.84;61.21
86104;BME280;76727;51.216;17.394;2024-03-08T09:53:44;100324.91;;;5.66;59.39
86104;BME280;76727;51.216;17.394;2024-03-08T09:56:48;100324.19;;;5.06;61.29
86104;BME280;76727;51.216;17.394;2024-03-08T09:59:52;100318.09;;;4.57;64.62
86104;BME280;76727;51.216;17.394;2024-03-08T10:02:54;100305.94;;;4.40;65.47
86104;BME280;76727;51.216;17.394;2024-03-08T10:06:02;100316.34;;;4.42;66.52
86104;BME280;76727;51.216;17.394;2024-03-08T10:09:04;100305.06;;;4.60;65.56
86104;BME280;76727;51.216;17.394;2024-03-08T10:12:08;100305.91;;;4.57;66.24
86104;BME280;76727;51.216;17.394;2024-03-08T10:15:11;100310.28;;;4.47;66.52
86104;BME280;76727;51.216;17.394;2024-03-08T10:18:12;100297.19;;;4.24;66.84
86104;BME280;76727;51.216;17.394;2024-03-08T10:21:15;100298.91;;;4.11;68.06
86104;BME280;76727;51.216;17.394;2024-03-08T10:24:17;100305.88;;;4.12;68.12
86104;BME280;76727;51.216;17.394;2024-03-08T10:27:19;100300.69;;;4.42;67.80
86104;BME280;76727;51.216;17.394;2024-03-08T10:30:21;100286.72;;;4.04;68.03
86104;BME280;76727;51.216;17.394;2024-03-08T10:33:24;100292.88;;;4.31;67.31
86104;BME280;76727;51.216;17.394;2024-03-08T10:36:28;100287.66;;;4.29;67.17
86104;BME280;76727;51.216;17.394;2024-03-08T10:39:34;100295.44;;;4.09;68.67
86104;BME280;76727;51.216;17.394;2024-03-08T10:42:41;100287.63;;;4.37;67.00
86104;BME280;76727;51.216;17.394;2024-03-08T10:45:51;100285.91;;;4.25;66.79
86104;BME280;76727;51.216;17.394;2024-03-08T10:49:00;100292.84;;;4.17;66.86
86104;BME280;76727;51.216;17.394;2024-03-08T10:52:06;100278.94;;;4.26;66.09
86104;BME280;76727;51.216;17.394;2024-03-08T10:55:10;100283.28;;;4.42;66.67
86104;BME280;76727;51.216;17.394;2024-03-08T10:58:15;100278.09;;;4.48;66.03
86104;BME280;76727;51.216;17.394;2024-03-08T11:01:17;100276.34;;;4.44;66.92
86104;BME280;76727;51.216;17.394;2024-03-08T11:04:19;100267.66;;;4.61;66.94
86104;BME280;76727;51.216;17.394;2024-03-08T11:07:21;100270.28;;;4.45;67.37
86104;BME280;76727;51.216;17.394;2024-03-08T11:10:22;100276.38;;;4.53;67.38
86104;BME280;76727;51.216;17.394;2024-03-08T11:13:36;100258.06;;;4.80;65.19
86104;BME280;76727;51.216;17.394;2024-03-08T11:16:39;100262.41;;;4.84;64.49
86104;BME280;76727;51.216;17.394;2024-03-08T11:19:48;100262.41;;;4.75;65.43
86104;BME280;76727;51.216;17.394;2024-03-08T11:22:53;100251.09;;;4.86;65.53
86104;BME280;76727;51.216;17.394;2024-03-08T11:25:55;100248.44;;;5.05;64.18
86104;BME280;76727;51.216;17.394;2024-03-08T11:29:35;100242.38;;;4.83;64.83
86104;BME280;76727;51.216;17.394;2024-03-08T11:32:37;100241.53;;;4.76;66.99
86104;BME280;76727;51.216;17.394;2024-03-08T11:35:39;100240.63;;;4.94;65.11
86104;BME280;76727;51.216;17.394;2024-03-08T11:38:43;100230.13;;;5.19;63.71
86104;BME280;76727;51.216;17.394;2024-03-08T11:41:45;100231.06;;;4.92;65.48
86104;BME280;76727;51.216;17.394;2024-03-08T11:44:50;100225.81;;;5.04;65.19
86104;BME280;76727;51.216;17.394;2024-03-08T11:47:51;100222.22;;;5.33;64.09
86104;BME280;76727;51.216;17.394;2024-03-08T11:50:59;100218.84;;;5.03;65.69
86104;BME280;76727;51.216;17.394;2024-03-08T11:54:01;100213.59;;;5.04;65.11
86104;BME280;76727;51.216;17.394;2024-03-08T11:57:03;100213.59;;;5.09;66.77
86104;BME280;76727;51.216;17.394;2024-03-08T12:00:15;100205.75;;;5.17;66.94
86104;BME280;76727;51.216;17.394;2024-03-08T12:03:17;100198.72;;;5.23;66.18
86104;BME280;76727;51.216;17.394;2024-03-08T12:06:18;100196.03;;;5.50;64.57
86104;BME280;76727;51.216;17.394;2024-03-08T12:09:20;100189.00;;;5.58;63.56
86104;BME280;76727;51.216;17.394;2024-03-08T12:12:21;100193.53;;;5.25;65.51
86104;BME280;76727;51.216;17.394;2024-03-08T12:15:25;100188.31;;;5.19;65.95
86104;BME280;76727;51.216;17.394;2024-03-08T12:18:26;100187.25;;;5.59;65.14
86104;BME280;76727;51.216;17.394;2024-03-08T12:21:28;100176.03;;;5.44;66.18
86104;BME280;76727;51.216;17.394;2024-03-08T12:24:33;100172.47;;;5.57;65.50
86104;BME280;76727;51.216;17.394;2024-03-08T12:27:35;100183.69;;;5.77;62.94
86104;BME280;76727;51.216;17.394;2024-03-08T12:30:46;100176.69;;;5.77;63.04
86104;BME280;76727;51.216;17.394;2024-03-08T12:33:49;100167.16;;;5.67;63.61
86104;BME280;76727;51.216;17.394;2024-03-08T12:36:52;100174.19;;;5.59;62.97
86104;BME280;76727;51.216;17.394;2024-03-08T12:39:54;100170.78;;;5.47;64.09
86104;BME280;76727;51.216;17.394;2024-03-08T12:42:57;100168.06;;;5.64;63.44
86104;BME280;76727;51.216;17.394;2024-03-08T12:45:59;100165.50;;;5.55;64.05
86104;BME280;76727;51.216;17.394;2024-03-08T12:49:00;100161.88;;;5.76;64.42
86104;BME280;76727;51.216;17.394;2024-03-08T12:52:03;100146.19;;;5.79;63.99
86104;BME280;76727;51.216;17.394;2024-03-08T12:55:04;100152.41;;;5.58;64.02
86104;BME280;76727;51.216;17.394;2024-03-08T12:58:05;100152.44;;;5.55;64.23
86104;BME280;76727;51.216;17.394;2024-03-08T13:01:08;100149.78;;;5.64;64.83
86104;BME280;76727;51.216;17.394;2024-03-08T13:04:10;100148.81;;;5.73;65.43
86104;BME280;76727;51.216;17.394;2024-03-08T13:07:11;100143.72;;;5.54;65.42
86104;BME280;76727;51.216;17.394;2024-03-08T13:10:14;100142.56;;;5.93;64.18
86104;BME280;76727;51.216;17.394;2024-03-08T13:13:17;100132.25;;;5.74;63.46
86104;BME280;76727;51.216;17.394;2024-03-08T13:16:19;100144.44;;;5.78;63.94
86104;BME280;76727;51.216;17.394;2024-03-08T13:19:20;100132.25;;;5.74;63.79
86104;BME280;76727;51.216;17.394;2024-03-08T13:22:21;100121.81;;;5.72;64.30
86104;BME280;76727;51.216;17.394;2024-03-08T13:25:23;100130.56;;;5.67;62.86
86104;BME280;76727;51.216;17.394;2024-03-08T13:28:25;100117.25;;;6.04;62.86
86104;BME280;76727;51.216;17.394;2024-03-08T13:31:28;100117.47;;;5.67;64.70
86104;BME280;76727;51.216;17.394;2024-03-08T13:34:30;100111.44;;;5.63;65.48
86104;BME280;76727;51.216;17.394;2024-03-08T13:37:32;100112.41;;;5.45;66.65
86104;BME280;76727;51.216;17.394;2024-03-08T13:40:34;100106.81;;;6.01;64.84
86104;BME280;76727;51.216;17.394;2024-03-08T13:43:36;100100.66;;;6.06;64.27
86104;BME280;76727;51.216;17.394;2024-03-08T13:46:39;100107.91;;;5.69;65.55
86104;BME280;76727;51.216;17.394;2024-03-08T13:49:41;100102.31;;;6.18;63.39
86104;BME280;76727;51.216;17.394;2024-03-08T13:52:43;100101.56;;;5.99;63.53
86104;BME280;76727;51.216;17.394;2024-03-08T13:55:45;100102.66;;;5.69;65.17
86104;BME280;76727;51.216;17.394;2024-03-08T13:58:47;100097.47;;;5.66;66.38
86104;BME280;76727;51.216;17.394;2024-03-08T14:01:50;100084.78;;;6.27;64.11
86104;BME280;76727;51.216;17.394;2024-03-08T14:04:53;100076.06;;;6.23;62.78
86104;BME280;76727;51.216;17.394;2024-03-08T14:07:54;100079.81;;;5.94;63.19
86104;BME280;76727;51.216;17.394;2024-03-08T14:10:55;100083.44;;;5.79;64.95
86104;BME280;76727;51.216;17.394;2024-03-08T14:13:57;100083.63;;;6.49;62.61
86104;BME280;76727;51.216;17.394;2024-03-08T14:17:00;100076.06;;;6.24;63.75
86104;BME280;76727;51.216;17.394;2024-03-08T14:20:03;100072.66;;;6.15;64.24
86104;BME280;76727;51.216;17.394;2024-03-08T14:23:05;100067.53;;;6.04;65.02
86104;BME280;76727;51.216;17.394;2024-03-08T14:26:08;100070.78;;;6.28;64.30
86104;BME280;76727;51.216;17.394;2024-03-08T14:29:12;100067.38;;;6.19;64.39
86104;BME280;76727;51.216;17.394;2024-03-08T14:32:15;100060.19;;;6.42;61.07
86104;BME280;76727;51.216;17.394;2024-03-08T14:35:17;100056.69;;;6.41;59.78
86104;BME280;76727;51.216;17.394;2024-03-08T14:38:19;100066.66;;;6.03;62.31
86104;BME280;76727;51.216;17.394;2024-03-08T14:41:21;100056.38;;;5.79;64.22
86104;BME280;76727;51.216;17.394;2024-03-08T14:44:23;100044.81;;;6.11;64.32
86104;BME280;76727;51.216;17.394;2024-03-08T14:47:26;100044.81;;;6.11;64.42
86104;BME280;76727;51.216;17.394;2024-03-08T14:50:28;100048.25;;;6.14;64.44
86104;BME280;76727;51.216;17.394;2024-03-08T14:53:30;100031.75;;;6.06;64.96
86104;BME280;76727;51.216;17.394;2024-03-08T14:56:33;100036.91;;;6.15;65.22
86104;BME280;76727;51.216;17.394;2024-03-08T14:59:35;100039.53;;;6.14;65.38
86104;BME280;76727;51.216;17.394;2024-03-08T15:02:37;100037.69;;;6.23;64.53
86104;BME280;76727;51.216;17.394;2024-03-08T15:05:40;100036.59;;;6.43;63.61
86104;BME280;76727;51.216;17.394;2024-03-08T15:08:42;100028.91;;;6.31;64.38
86104;BME280;76727;51.216;17.394;2024-03-08T15:11:45;100031.78;;;6.03;65.33
86104;BME280;76727;51.216;17.394;2024-03-08T15:14:47;100023.97;;;5.95;66.34
86104;BME280;76727;51.216;17.394;2024-03-08T15:17:50;100022.59;;;6.47;64.34
86104;BME280;76727;51.216;17.394;2024-03-08T15:20:52;100014.34;;;6.05;65.49
86104;BME280;76727;51.216;17.394;2024-03-08T15:23:54;100021.34;;;6.03;65.33
86104;BME280;76727;51.216;17.394;2024-03-08T15:26:55;100011.09;;;5.77;66.71
86104;BME280;76727;51.216;17.394;2024-03-08T15:29:56;100015.25;;;6.02;66.44
86104;BME280;76727;51.216;17.394;2024-03-08T15:32:59;100010.09;;;5.90;66.75
86104;BME280;76727;51.216;17.394;2024-03-08T15:36:00;100015.56;;;5.64;67.48
86104;BME280;76727;51.216;17.394;2024-03-08T15:39:01;100011.44;;;5.35;69.35
86104;BME280;76727;51.216;17.394;2024-03-08T15:42:03;100008.66;;;5.56;68.50